createdAt,value
2023-03-22T00:00:00.667Z,8.61
2023-03-22T00:02:27.730Z,8.65
2023-03-22T00:04:54.862Z,8.56
2023-03-22T00:07:21.768Z,8.49
2023-03-22T00:09:48.801Z,8.50
2023-03-22T00:12:15.595Z,8.46
2023-03-22T00:14:42.916Z,8.51
2023-03-22T00:17:09.764Z,8.51
2023-03-22T00:19:37.386Z,8.44
2023-03-22T00:22:06.254Z,8.32
2023-03-22T00:24:33.480Z,8.24
2023-03-22T00:27:00.996Z,8.23
2023-03-22T00:29:28.160Z,8.18
2023-03-22T00:31:56.103Z,8.26
2023-03-22T00:34:23.454Z,8.25
2023-03-22T00:36:51.855Z,8.29
2023-03-22T00:39:18.988Z,8.24
2023-03-22T00:41:45.874Z,8.25
2023-03-22T00:44:12.938Z,8.32
2023-03-22T00:46:39.842Z,8.29
2023-03-22T00:49:07.079Z,8.30
2023-03-22T00:51:33.885Z,8.33
2023-03-22T00:54:01.042Z,8.13
2023-03-22T00:56:28.845Z,8.05
2023-03-22T00:58:56.277Z,8.07
2023-03-22T01:01:23.250Z,8.00
2023-03-22T01:03:50.773Z,8.02
2023-03-22T01:06:18.343Z,8.08
2023-03-22T01:08:45.452Z,7.93
2023-03-22T01:11:12.982Z,7.92
2023-03-22T01:13:41.843Z,7.85
2023-03-22T01:16:09.841Z,7.86
2023-03-22T01:18:37.070Z,7.82
2023-03-22T01:21:04.135Z,7.75
2023-03-22T01:23:31.903Z,7.70
2023-03-22T01:25:58.772Z,7.76
2023-03-22T01:28:27.301Z,7.73
2023-03-22T01:30:55.010Z,7.61
2023-03-22T01:33:22.451Z,7.66
2023-03-22T01:35:49.269Z,7.56
2023-03-22T01:38:16.356Z,7.50
2023-03-22T01:40:43.237Z,7.44
2023-03-22T01:43:15.025Z,7.33
2023-03-22T01:45:43.276Z,7.36
2023-03-22T01:48:28.396Z,7.31
2023-03-22T01:51:12.122Z,7.38
2023-03-22T01:53:45.249Z,7.33
2023-03-22T01:56:12.845Z,7.28
2023-03-22T01:58:41.359Z,7.27
2023-03-22T02:01:10.507Z,7.29
2023-03-22T02:03:48.766Z,7.37
2023-03-22T02:06:16.521Z,7.30
2023-03-22T02:08:43.970Z,7.14
2023-03-22T02:11:17.181Z,7.11
2023-03-22T02:13:48.098Z,6.94
2023-03-22T02:16:41.461Z,6.91
2023-03-22T02:19:42.619Z,6.96
2023-03-22T02:22:15.064Z,6.96
2023-03-22T02:25:04.172Z,6.85
2023-03-22T02:27:40.471Z,6.70
2023-03-22T02:30:19.271Z,6.73
2023-03-22T02:32:54.856Z,6.60
2023-03-22T02:36:00.272Z,6.62
2023-03-22T02:38:26.994Z,6.64
2023-03-22T02:41:12.050Z,6.60
2023-03-22T02:44:03.400Z,6.61
2023-03-22T02:46:41.279Z,6.59
2023-03-22T02:49:22.443Z,6.67
2023-03-22T02:51:59.517Z,6.75
2023-03-22T02:54:33.538Z,6.72
2023-03-22T02:57:07.466Z,6.72
2023-03-22T02:59:38.436Z,6.77
2023-03-22T03:02:09.342Z,6.85
2023-03-22T03:04:42.168Z,6.82
2023-03-22T03:07:14.403Z,6.70
2023-03-22T03:09:42.946Z,6.63
2023-03-22T03:12:21.212Z,6.79
2023-03-22T03:14:48.355Z,6.80
2023-03-22T03:17:41.578Z,6.78
2023-03-22T03:20:37.158Z,6.87
2023-03-22T03:23:14.999Z,6.87
2023-03-22T03:26:04.638Z,6.86
2023-03-22T03:28:40.358Z,6.85
2023-03-22T03:31:09.884Z,6.89
2023-03-22T03:33:46.162Z,6.80
2023-03-22T03:36:17.165Z,6.85
2023-03-22T03:38:49.754Z,6.82
2023-03-22T03:41:20.457Z,6.90
2023-03-22T03:43:51.396Z,6.78
2023-03-22T03:46:18.451Z,6.79
2023-03-22T03:48:49.551Z,6.81
2023-03-22T03:51:16.576Z,6.82
2023-03-22T03:53:43.682Z,6.79
2023-03-22T03:56:10.879Z,6.77
2023-03-22T03:58:38.009Z,6.85
2023-03-22T04:01:05.397Z,6.72
2023-03-22T04:03:32.706Z,6.68
2023-03-22T04:05:59.896Z,6.80
2023-03-22T04:08:27.651Z,6.73
2023-03-22T04:10:54.485Z,6.81
2023-03-22T04:13:21.799Z,6.76
2023-03-22T04:15:53.556Z,6.91
2023-03-22T04:18:21.340Z,6.80
2023-03-22T04:20:49.479Z,6.74
2023-03-22T04:23:16.649Z,6.67
2023-03-22T04:25:43.720Z,6.63
2023-03-22T04:28:10.863Z,6.54
2023-03-22T04:30:38.730Z,6.55
2023-03-22T04:33:06.985Z,6.55
2023-03-22T04:35:37.038Z,6.59
2023-03-22T04:38:04.109Z,6.55
2023-03-22T04:40:35.315Z,6.49
2023-03-22T04:43:04.202Z,6.44
2023-03-22T04:45:32.214Z,6.44
2023-03-22T04:48:00.018Z,6.46
2023-03-22T04:50:28.255Z,6.32
2023-03-22T04:52:55.396Z,6.33
2023-03-22T04:55:22.315Z,6.24
2023-03-22T04:57:49.407Z,6.21
2023-03-22T05:00:17.244Z,6.27
2023-03-22T05:02:44.352Z,6.28
2023-03-22T05:05:11.194Z,6.42
2023-03-22T05:07:39.261Z,6.40
2023-03-22T05:10:07.199Z,6.44
2023-03-22T05:12:34.263Z,6.37
2023-03-22T05:15:03.681Z,6.38
2023-03-22T05:17:30.874Z,6.37
2023-03-22T05:19:57.719Z,6.41
2023-03-22T05:22:24.811Z,6.39
2023-03-22T05:24:51.791Z,6.47
2023-03-22T05:27:30.280Z,6.52
2023-03-22T05:29:57.338Z,6.58
2023-03-22T05:32:25.683Z,6.69
2023-03-22T05:34:52.805Z,6.90
2023-03-22T05:37:21.126Z,7.00
2023-03-22T05:39:47.894Z,6.99
2023-03-22T05:42:14.950Z,6.99
2023-03-22T05:44:41.732Z,7.10
2023-03-22T05:47:08.800Z,7.21
2023-03-22T05:49:35.802Z,7.34
2023-03-22T05:52:04.491Z,7.40
2023-03-22T05:54:31.486Z,7.52
2023-03-22T05:56:58.505Z,7.62
2023-03-22T05:59:25.433Z,7.74
2023-03-22T06:01:52.597Z,7.86
2023-03-22T06:04:21.001Z,7.93
2023-03-22T06:06:48.246Z,8.02
2023-03-22T06:09:17.669Z,8.15
2023-03-22T06:11:45.007Z,8.30
2023-03-22T06:14:12.110Z,8.38
2023-03-22T06:16:39.221Z,8.49
2023-03-22T06:19:06.124Z,8.62
2023-03-22T06:21:33.209Z,8.70
2023-03-22T06:23:59.957Z,8.86
2023-03-22T06:26:26.988Z,9.00
2023-03-22T06:28:53.748Z,9.18
2023-03-22T06:31:21.120Z,9.33
2023-03-22T06:33:48.146Z,9.49
2023-03-22T06:36:15.420Z,9.63
2023-03-22T06:38:42.236Z,9.74
2023-03-22T06:41:09.530Z,9.81
2023-03-22T06:43:36.294Z,9.99
2023-03-22T06:46:03.526Z,10.07
2023-03-22T06:48:30.325Z,10.23
2023-03-22T06:50:57.488Z,10.33
2023-03-22T06:53:24.302Z,10.55
2023-03-22T06:55:55.239Z,10.70
2023-03-22T06:58:22.660Z,10.83
2023-03-22T07:00:49.826Z,10.84
2023-03-22T07:03:16.672Z,10.92
2023-03-22T07:05:44.237Z,11.05
2023-03-22T07:08:11.022Z,11.21
2023-03-22T07:10:41.192Z,11.34
2023-03-22T07:13:08.254Z,11.35
2023-03-22T07:15:35.623Z,11.24
2023-03-22T07:18:02.781Z,11.33
2023-03-22T07:20:29.972Z,11.46
2023-03-22T07:22:57.347Z,11.51
2023-03-22T07:25:24.454Z,11.66
2023-03-22T07:27:51.326Z,11.41
2023-03-22T07:30:18.441Z,11.58
2023-03-22T07:32:45.597Z,11.77
2023-03-22T07:35:12.784Z,11.98
2023-03-22T07:37:39.658Z,12.23
2023-03-22T07:40:07.352Z,12.53
2023-03-22T07:42:34.769Z,12.48
2023-03-22T07:45:02.278Z,12.57
2023-03-22T07:47:40.348Z,12.63
2023-03-22T07:50:09.969Z,12.43
2023-03-22T07:52:37.154Z,12.60
2023-03-22T07:55:04.981Z,12.65
2023-03-22T07:57:31.803Z,12.84
2023-03-22T07:59:58.939Z,12.86
2023-03-22T08:02:26.083Z,12.94
2023-03-22T08:04:56.497Z,12.72
2023-03-22T08:07:25.214Z,13.12
2023-03-22T08:09:52.368Z,13.19
2023-03-22T08:12:19.572Z,13.23
2023-03-22T08:14:50.929Z,13.36
2023-03-22T08:17:18.924Z,13.54
2023-03-22T08:19:46.412Z,13.63
2023-03-22T08:22:15.488Z,13.65
2023-03-22T08:24:42.623Z,13.56
2023-03-22T08:27:09.362Z,13.11
2023-03-22T08:29:37.398Z,13.08
2023-03-22T08:32:05.762Z,13.27
2023-03-22T08:34:40.358Z,13.21
2023-03-22T08:37:07.488Z,13.36
2023-03-22T08:39:34.839Z,13.59
2023-03-22T08:42:01.680Z,13.58
2023-03-22T08:44:28.905Z,13.39
2023-03-22T08:46:56.011Z,13.49
2023-03-22T08:49:23.311Z,13.63
2023-03-22T08:51:50.129Z,13.71
2023-03-22T08:54:17.200Z,13.31
2023-03-22T08:56:44.015Z,13.41
2023-03-22T08:59:11.181Z,13.62
2023-03-22T09:01:38.257Z,13.50
2023-03-22T09:04:05.862Z,12.92
2023-03-22T09:06:32.910Z,13.13
2023-03-22T09:09:00.130Z,13.24
2023-03-22T09:11:27.946Z,13.69
2023-03-22T09:13:55.008Z,13.80
2023-03-22T09:16:22.074Z,13.62
2023-03-22T09:18:49.314Z,13.80
2023-03-22T09:21:16.165Z,14.24
2023-03-22T09:23:47.635Z,13.99
2023-03-22T09:26:15.081Z,14.24
2023-03-22T09:28:42.485Z,14.48
2023-03-22T09:31:10.402Z,14.02
2023-03-22T09:33:38.982Z,14.30
2023-03-22T09:36:06.099Z,14.52
2023-03-22T09:38:33.961Z,14.62
2023-03-22T09:41:05.787Z,14.47
2023-03-22T09:43:44.832Z,14.58
2023-03-22T09:46:23.365Z,14.74
2023-03-22T09:48:51.534Z,14.48
2023-03-22T09:51:54.439Z,14.27
2023-03-22T09:54:33.451Z,14.23
2023-03-22T09:57:24.368Z,14.17
2023-03-22T09:59:57.293Z,14.36
2023-03-22T10:02:33.391Z,14.61
2023-03-22T10:05:22.183Z,14.52
2023-03-22T10:08:10.611Z,14.68
2023-03-22T10:10:41.897Z,14.62
2023-03-22T10:13:30.916Z,14.48
2023-03-22T10:16:02.094Z,14.61
2023-03-22T10:18:43.545Z,13.82
2023-03-22T10:21:15.836Z,13.87
2023-03-22T10:23:57.072Z,13.69
2023-03-22T10:26:31.954Z,13.93
2023-03-22T10:29:21.505Z,14.25
2023-03-22T10:31:48.677Z,13.87
2023-03-22T10:34:20.971Z,13.79
2023-03-22T10:36:51.599Z,13.56
2023-03-22T10:39:44.374Z,13.63
2023-03-22T10:42:21.261Z,13.99
2023-03-22T10:45:00.635Z,14.07
2023-03-22T10:47:42.772Z,14.19
2023-03-22T10:50:20.373Z,14.02
2023-03-22T10:53:14.620Z,13.83
2023-03-22T10:55:43.718Z,13.97
2023-03-22T10:58:19.340Z,13.91
2023-03-22T11:00:49.402Z,13.84
2023-03-22T11:03:37.326Z,13.73
2023-03-22T11:06:07.134Z,13.77
2023-03-22T11:08:45.166Z,13.65
2023-03-22T11:11:34.873Z,13.84
2023-03-22T11:14:07.161Z,13.74
2023-03-22T11:16:55.234Z,13.87
2023-03-22T11:19:26.757Z,13.85
2023-03-22T11:21:57.389Z,13.87
2023-03-22T11:24:27.574Z,13.71
2023-03-22T11:27:40.212Z,13.63
2023-03-22T11:30:28.424Z,13.76
2023-03-22T11:33:05.485Z,13.62
2023-03-22T11:35:32.898Z,13.56
2023-03-22T11:38:02.366Z,13.74
2023-03-22T11:40:36.692Z,13.80
2023-03-22T11:43:23.193Z,13.80
2023-03-22T11:45:55.747Z,13.78
2023-03-22T11:48:25.643Z,13.85
2023-03-22T11:51:04.080Z,14.01
2023-03-22T11:53:33.874Z,14.20
2023-03-22T11:56:03.124Z,14.37
2023-03-22T11:58:52.485Z,14.50
2023-03-22T12:01:36.640Z,14.70
2023-03-22T12:04:07.802Z,14.75
2023-03-22T12:06:39.875Z,14.65
2023-03-22T12:09:27.055Z,14.99
2023-03-22T12:11:57.683Z,15.35
2023-03-22T12:14:45.422Z,15.03
2023-03-22T12:17:18.498Z,15.63
2023-03-22T12:20:21.758Z,15.60
2023-03-22T12:22:53.329Z,15.14
2023-03-22T12:25:27.126Z,15.56
2023-03-22T12:27:59.434Z,15.59
2023-03-22T12:30:29.915Z,15.44
2023-03-22T12:33:29.888Z,15.50
2023-03-22T12:36:02.808Z,14.88
2023-03-22T12:38:35.546Z,15.36
2023-03-22T12:41:08.138Z,15.58
2023-03-22T12:43:59.201Z,15.59
2023-03-22T12:46:40.269Z,15.68
2023-03-22T12:49:19.368Z,15.78
2023-03-22T12:51:47.194Z,15.45
2023-03-22T12:54:22.956Z,15.76
2023-03-22T12:56:51.365Z,15.57
2023-03-22T12:59:23.393Z,15.67
2023-03-22T13:02:01.148Z,16.01
2023-03-22T13:04:51.356Z,15.78
2023-03-22T13:07:18.091Z,15.82
2023-03-22T13:09:50.133Z,16.32
2023-03-22T13:12:16.975Z,16.33
2023-03-22T13:14:52.921Z,16.31
2023-03-22T13:17:22.568Z,16.36
2023-03-22T13:20:06.705Z,16.77
2023-03-22T13:22:36.467Z,16.87
2023-03-22T13:25:13.273Z,17.21
2023-03-22T13:27:46.021Z,17.61
2023-03-22T13:30:34.867Z,17.58
2023-03-22T13:33:14.821Z,17.86
2023-03-22T13:35:48.569Z,17.58
2023-03-22T13:38:30.787Z,17.52
2023-03-22T13:41:08.727Z,17.30
2023-03-22T13:43:47.450Z,17.36
2023-03-22T13:46:17.457Z,17.43
2023-03-22T13:48:47.624Z,17.34
2023-03-22T13:51:21.604Z,17.23
2023-03-22T13:54:16.397Z,17.17
2023-03-22T13:56:49.778Z,17.38
2023-03-22T14:00:08.892Z,16.98
2023-03-22T14:02:42.236Z,16.99
2023-03-22T14:05:17.639Z,16.95
2023-03-22T14:07:52.294Z,17.10
2023-03-22T14:10:31.088Z,16.90
2023-03-22T14:13:05.692Z,16.64
2023-03-22T14:15:37.517Z,17.03
2023-03-22T14:18:27.034Z,17.00
2023-03-22T14:20:58.992Z,16.55
